Time;durP1;ratioP1;P1;durP2;ratioP2;P2;SDS_P1;SDS_P2;PMS_P1;PMS_P2;Temp;Humidity;BMP_temperature;BMP_pressure;BME280_temperature;BME280_humidity;BME280_pressure;Samples;Min_cycle;Max_cycle;Signal;HPM_P1;HPM_P2
2022/09/08 00:02:01;;;;;;;1999.90;999.90;;;16.20;99.90;;;;;;5015902;28;20582;-72
2022/09/08 00:04:27;;;;;;;1999.90;999.90;;;16.30;99.90;;;;;;5022457;28;20493;-72
2022/09/08 00:06:54;;;;;;;1999.90;999.90;;;16.40;99.90;;;;;;5016987;28;20471;-72
2022/09/08 00:09:21;;;;;;;1999.90;999.90;;;16.50;99.90;;;;;;5018390;28;21014;-72
2022/09/08 00:11:50;;;;;;;1999.90;999.90;;;16.60;99.90;;;;;;5022735;28;20518;-72
2022/09/08 00:14:17;;;;;;;1999.90;999.90;;;16.60;99.90;;;;;;5019546;28;20487;-72
2022/09/08 00:16:45;;;;;;;1999.90;999.90;;;16.60;99.90;;;;;;5023722;28;21043;-70
2022/09/08 00:19:12;;;;;;;1999.90;999.90;;;16.70;99.90;;;;;;5021785;28;20572;-69
2022/09/08 00:21:39;;;;;;;1999.90;999.90;;;16.80;99.90;;;;;;5021728;28;20465;-69
2022/09/08 00:24:06;;;;;;;1999.90;999.90;;;16.80;99.90;;;;;;5020498;28;20554;-69
2022/09/08 00:26:32;;;;;;;1999.90;999.90;;;16.80;99.90;;;;;;5024331;28;20948;-69
2022/09/08 00:28:59;;;;;;;1999.90;999.90;;;16.80;99.90;;;;;;5020835;28;20495;-70
2022/09/08 00:31:26;;;;;;;1999.90;999.90;;;16.70;99.90;;;;;;5017887;28;20537;-69
2022/09/08 00:33:54;;;;;;;1999.90;999.90;;;16.60;99.90;;;;;;5022243;28;20466;-69
2022/09/08 00:36:20;;;;;;;1999.90;999.90;;;16.60;99.90;;;;;;5017578;28;20459;-69
2022/09/08 00:38:51;;;;;;;1999.90;999.90;;;16.60;99.90;;;;;;5025233;28;20490;-70
2022/09/08 00:41:18;;;;;;;1999.90;999.90;;;16.60;99.90;;;;;;5019638;28;20452;-69
2022/09/08 00:43:46;;;;;;;1999.90;999.90;;;16.80;99.90;;;;;;5023434;28;20845;-69
2022/09/08 00:46:24;;;;;;;1999.90;999.90;;;16.70;99.90;;;;;;5023983;28;20527;-69
2022/09/08 00:48:58;;;;;;;1999.90;999.90;;;16.70;99.90;;;;;;5023545;28;21049;-69
2022/09/08 00:51:26;;;;;;;1999.90;999.90;;;16.70;99.90;;;;;;5014821;28;20524;-70
2022/09/08 00:53:56;;;;;;;1999.90;999.90;;;16.70;99.90;;;;;;5012739;28;20471;-70
2022/09/08 00:56:23;;;;;;;1999.90;999.90;;;16.60;99.90;;;;;;5022877;28;20500;-69
2022/09/08 00:58:50;;;;;;;1999.90;999.90;;;16.50;99.90;;;;;;5016279;28;20542;-69
2022/09/08 01:01:17;;;;;;;1999.90;999.90;;;16.40;99.90;;;;;;5016206;28;20956;-69
2022/09/08 01:03:44;;;;;;;1999.90;999.90;;;16.40;99.90;;;;;;5011896;28;20477;-69
2022/09/08 01:12:43;;;;;;;1999.90;999.90;;;16.40;99.90;;;;;;5010289;28;21022;-69
2022/09/08 01:14:51;;;;;;;1999.90;999.90;;;16.20;99.90;;;;;;5010665;28;20551;-72
2022/09/08 01:17:21;;;;;;;1999.90;999.90;;;16.20;99.90;;;;;;5010768;28;20479;-71
2022/09/08 01:19:49;;;;;;;1999.90;999.90;;;16.20;99.90;;;;;;5011918;28;20873;-71
2022/09/08 01:22:28;;;;;;;1999.90;999.90;;;16.30;99.90;;;;;;5010813;28;20519;-71
2022/09/08 01:25:02;;;;;;;1999.90;999.90;;;16.30;99.90;;;;;;5010733;28;20534;-71
2022/09/08 01:27:31;;;;;;;1999.90;999.90;;;16.30;99.90;;;;;;5007407;28;20521;-71
2022/09/08 01:30:01;;;;;;;1999.90;999.90;;;16.40;99.90;;;;;;5010901;28;20538;-71
2022/09/08 01:32:30;;;;;;;1999.90;999.90;;;16.30;99.90;;;;;;5009674;28;20480;-71
2022/09/08 01:34:57;;;;;;;1999.90;999.90;;;16.20;99.90;;;;;;5009624;28;20490;-71
2022/09/08 01:37:24;;;;;;;1999.90;999.90;;;16.20;99.90;;;;;;5011347;28;20464;-72
2022/09/08 01:39:50;;;;;;;1999.90;999.90;;;16.20;99.90;;;;;;5008626;28;20576;-71
2022/09/08 01:42:17;;;;;;;1999.90;999.90;;;16.20;99.90;;;;;;5009740;28;20488;-71
2022/09/08 01:44:45;;;;;;;1999.90;999.90;;;16.00;99.90;;;;;;5010579;28;21036;-71
2022/09/08 01:47:12;;;;;;;1999.90;999.90;;;16.00;99.90;;;;;;5010557;28;20468;-71
2022/09/08 01:49:39;;;;;;;1999.90;999.90;;;16.00;99.90;;;;;;5010873;28;20515;-71
2022/09/08 01:52:06;;;;;;;1999.90;999.90;;;16.00;99.90;;;;;;5009572;28;20491;-71
2022/09/08 01:54:34;;;;;;;1999.90;999.90;;;15.90;99.90;;;;;;5009991;28;20472;-72
2022/09/08 01:57:01;;;;;;;1999.90;999.90;;;16.00;99.90;;;;;;5010372;28;20529;-71
2022/09/08 01:59:27;;;;;;;1999.90;999.90;;;16.00;99.90;;;;;;5009816;28;20488;-71
2022/09/08 02:01:55;;;;;;;1999.90;999.90;;;16.00;99.90;;;;;;5008704;28;20460;-72
2022/09/08 02:04:22;;;;;;;1999.90;999.90;;;15.90;99.90;;;;;;5009828;28;20513;-70
2022/09/08 02:06:48;;;;;;;1999.90;999.90;;;15.90;99.90;;;;;;5008489;28;20468;-71
2022/09/08 02:09:15;;;;;;;1999.90;999.90;;;15.80;99.90;;;;;;5006804;28;20595;-71
2022/09/08 02:11:42;;;;;;;1999.90;999.90;;;15.70;99.90;;;;;;5010424;28;21025;-71
2022/09/08 02:14:09;;;;;;;1999.90;999.90;;;15.60;99.90;;;;;;5007782;28;20472;-71
2022/09/08 02:16:36;;;;;;;1999.90;999.90;;;15.70;99.90;;;;;;5004894;28;20836;-71
2022/09/08 02:19:04;;;;;;;1999.90;999.90;;;15.60;99.90;;;;;;5008769;28;21131;-71
2022/09/08 02:21:31;;;;;;;1999.90;999.90;;;15.60;99.90;;;;;;5010440;28;20960;-71
2022/09/08 02:23:59;;;;;;;1999.90;999.90;;;15.70;99.90;;;;;;5009838;28;20529;-71
2022/09/08 02:26:28;;;;;;;1999.90;999.90;;;15.70;99.90;;;;;;5008967;28;20956;-71
2022/09/08 02:29:03;;;;;;;1999.90;999.90;;;15.60;99.90;;;;;;5117199;27;21138;-70
2022/09/08 02:31:30;;;;;;;1999.90;999.90;;;15.40;99.90;;;;;;5099786;28;20547;-70
2022/09/08 02:33:57;;;;;;;1999.90;999.90;;;15.50;99.90;;;;;;5104974;28;21036;-70
2022/09/08 02:36:24;;;;;;;1999.90;999.90;;;15.50;99.90;;;;;;5105175;28;20524;-70
2022/09/08 02:38:52;;;;;;;1999.90;999.90;;;15.50;99.90;;;;;;5105842;28;20479;-70
2022/09/08 02:41:19;;;;;;;1999.90;999.90;;;15.50;99.90;;;;;;5106141;28;20457;-70
2022/09/08 02:43:46;;;;;;;1999.90;999.90;;;15.40;99.90;;;;;;5105074;28;20525;-70
2022/09/08 02:46:15;;;;;;;1999.90;999.90;;;15.40;99.90;;;;;;5105453;28;20463;-70
2022/09/08 02:48:41;;;;;;;1999.90;999.90;;;15.40;99.90;;;;;;5106089;28;20522;-70
2022/09/08 02:51:10;;;;;;;1999.90;999.90;;;15.30;99.90;;;;;;5105687;28;20525;-70
2022/09/08 02:53:38;;;;;;;1999.90;999.90;;;15.30;99.90;;;;;;5105565;28;20528;-70
2022/09/08 02:56:06;;;;;;;1999.90;999.90;;;15.30;99.90;;;;;;5104649;28;20850;-70
2022/09/08 02:58:33;;;;;;;1999.90;999.90;;;15.40;99.90;;;;;;5106087;28;21219;-70
2022/09/08 03:01:00;;;;;;;1999.90;999.90;;;15.30;99.90;;;;;;5105513;28;20878;-70
2022/09/08 03:03:28;;;;;;;1999.90;999.90;;;15.30;99.90;;;;;;5106683;28;20505;-70
2022/09/08 03:05:55;;;;;;;1999.90;999.90;;;15.30;99.90;;;;;;5104879;28;20535;-70
2022/09/08 03:08:23;;;;;;;1999.90;999.90;;;15.30;99.90;;;;;;5105777;28;20511;-70
2022/09/08 03:10:50;;;;;;;1999.90;999.90;;;15.40;99.90;;;;;;5105254;28;20936;-70
2022/09/08 03:13:17;;;;;;;1999.90;999.90;;;15.50;99.90;;;;;;5105645;28;20456;-70
2022/09/08 03:15:45;;;;;;;1999.90;999.90;;;15.50;99.90;;;;;;5105625;28;20513;-70
2022/09/08 03:18:11;;;;;;;1999.90;999.90;;;15.50;99.90;;;;;;5104758;28;20540;-70
2022/09/08 03:20:40;;;;;;;1999.90;999.90;;;15.60;99.90;;;;;;5100892;28;20463;-70
2022/09/08 03:23:07;;;;;;;1999.90;999.90;;;15.60;99.90;;;;;;5104539;28;20456;-70
2022/09/08 03:25:36;;;;;;;1999.90;999.90;;;15.70;99.90;;;;;;5105518;28;20459;-70
2022/09/08 03:28:03;;;;;;;1999.90;999.90;;;15.70;99.90;;;;;;5104444;28;21008;-70
2022/09/08 03:30:29;;;;;;;1999.90;999.90;;;15.70;99.90;;;;;;5106502;28;20471;-70
2022/09/08 03:32:56;;;;;;;1999.90;999.90;;;15.80;99.90;;;;;;5105780;28;20512;-70
2022/09/08 03:35:22;;;;;;;1999.90;999.90;;;15.80;99.90;;;;;;5104670;28;20460;-70
2022/09/08 03:37:50;;;;;;;1999.90;999.90;;;15.80;99.90;;;;;;5106526;28;20481;-70
2022/09/08 03:40:18;;;;;;;1999.90;999.90;;;15.80;99.90;;;;;;5091296;28;20484;-69
2022/09/08 03:42:45;;;;;;;1999.90;999.90;;;15.80;99.90;;;;;;5087877;28;20552;-70
2022/09/08 03:45:15;;;;;;;1999.90;999.90;;;15.80;99.90;;;;;;5091122;28;20884;-70
2022/09/08 03:47:42;;;;;;;1999.90;999.90;;;15.80;99.90;;;;;;5092518;28;20508;-70
2022/09/08 03:50:10;;;;;;;1999.90;999.90;;;15.90;99.90;;;;;;5091098;28;20491;-70
2022/09/08 03:52:37;;;;;;;1999.90;999.90;;;15.80;99.90;;;;;;5085759;28;20543;-70
2022/09/08 03:55:06;;;;;;;1999.90;999.90;;;15.80;99.90;;;;;;5091486;28;20464;-70
2022/09/08 03:57:33;;;;;;;1999.90;999.90;;;15.90;99.90;;;;;;5092169;28;20453;-70
2022/09/08 04:00:00;;;;;;;1999.90;999.90;;;15.90;99.90;;;;;;5091589;28;20851;-69
2022/09/08 04:02:28;;;;;;;1999.90;999.90;;;16.10;99.90;;;;;;5091235;28;20927;-70
2022/09/08 04:04:56;;;;;;;1999.90;999.90;;;16.10;99.90;;;;;;5091697;28;20457;-70
2022/09/08 04:07:26;;;;;;;1999.90;999.90;;;16.10;99.90;;;;;;5090998;28;20456;-70
2022/09/08 04:09:53;;;;;;;1999.90;999.90;;;16.20;99.90;;;;;;5091980;28;20484;-71
2022/09/08 04:12:21;;;;;;;1999.90;999.90;;;16.20;99.90;;;;;;5090667;28;20534;-70
2022/09/08 04:14:48;;;;;;;1999.90;999.90;;;16.20;99.90;;;;;;5089304;28;20492;-69
2022/09/08 04:17:15;;;;;;;1999.90;999.90;;;16.30;99.90;;;;;;5088859;28;20549;-70
2022/09/08 04:19:42;;;;;;;1999.90;999.90;;;16.10;99.90;;;;;;5085738;28;20484;-70
2022/09/08 04:22:08;;;;;;;1999.90;999.90;;;16.20;99.90;;;;;;5088478;28;20460;-70
2022/09/08 04:24:35;;;;;;;1999.90;999.90;;;16.30;99.90;;;;;;5091270;28;20825;-70
2022/09/08 04:27:01;;;;;;;1999.90;999.90;;;16.20;99.90;;;;;;5089735;28;20562;-70
2022/09/08 04:29:29;;;;;;;1999.90;999.90;;;16.20;99.90;;;;;;5089888;28;20484;-70
2022/09/08 04:31:56;;;;;;;1999.90;999.90;;;16.30;99.90;;;;;;5091586;28;20464;-69
2022/09/08 04:34:22;;;;;;;1999.90;999.90;;;16.30;99.90;;;;;;5089237;28;20460;-70
2022/09/08 04:36:49;;;;;;;1999.90;999.90;;;16.20;99.90;;;;;;5091620;28;20464;-70
2022/09/08 04:39:16;;;;;;;1999.90;999.90;;;16.30;99.90;;;;;;5086996;28;21019;-70
2022/09/08 04:41:43;;;;;;;1999.90;999.90;;;16.20;99.90;;;;;;5088854;28;20456;-70
2022/09/08 04:44:10;;;;;;;1999.90;999.90;;;16.30;99.90;;;;;;5088874;28;20464;-70
2022/09/08 04:46:39;;;;;;;1999.90;999.90;;;16.30;99.90;;;;;;5089689;28;20456;-70
2022/09/08 04:49:06;;;;;;;1999.90;999.90;;;16.40;99.90;;;;;;5088865;28;20488;-70
2022/09/08 04:51:33;;;;;;;1999.90;999.90;;;16.40;99.90;;;;;;5088459;28;20643;-70
2022/09/08 04:54:01;;;;;;;1999.90;999.90;;;16.40;99.90;;;;;;5089983;28;20841;-71
2022/09/08 04:56:29;;;;;;;1999.90;999.90;;;16.30;99.90;;;;;;5088153;28;20465;-70
2022/09/08 04:58:58;;;;;;;1999.90;999.90;;;16.30;99.90;;;;;;5088419;28;20550;-70
2022/09/08 05:01:27;;;;;;;1999.90;999.90;;;16.40;99.90;;;;;;5089521;28;20750;-70
2022/09/08 05:03:59;;;;;;;1999.90;999.90;;;16.40;99.90;;;;;;5088366;28;20457;-69
2022/09/08 05:06:26;;;;;;;1999.90;999.90;;;16.50;99.90;;;;;;5087240;28;20489;-70
2022/09/08 05:08:55;;;;;;;1999.90;999.90;;;16.50;99.90;;;;;;5088725;28;20484;-70
2022/09/08 05:11:23;;;;;;;1999.90;999.90;;;16.50;99.90;;;;;;5087703;28;20567;-70
2022/09/08 05:13:50;;;;;;;1999.90;999.90;;;16.50;99.90;;;;;;5099029;22;20527;-71
2022/09/08 05:16:19;;;;;;;1999.90;999.90;;;16.50;99.90;;;;;;5077042;28;20453;-70
2022/09/08 05:18:47;;;;;;;1999.90;999.90;;;16.50;99.90;;;;;;5067782;28;20830;-71
2022/09/08 05:21:16;;;;;;;1999.90;999.90;;;16.60;99.90;;;;;;5075855;28;20880;-73
2022/09/08 05:23:43;;;;;;;1999.90;999.90;;;16.70;99.90;;;;;;5079674;28;20482;-73
2022/09/08 05:26:15;;;;;;;1999.90;999.90;;;16.80;99.90;;;;;;5078113;28;20519;-73
2022/09/08 05:28:43;;;;;;;1999.90;999.90;;;16.80;99.90;;;;;;5079493;28;20512;-74
2022/09/08 05:31:12;;;;;;;1999.90;999.90;;;17.00;99.90;;;;;;5075676;28;20461;-75
2022/09/08 05:33:39;;;;;;;1999.90;999.90;;;17.00;99.90;;;;;;5068452;28;20506;-74
2022/09/08 05:36:10;;;;;;;1999.90;999.90;;;17.10;99.90;;;;;;5071115;28;20457;-73
2022/09/08 05:38:38;;;;;;;1999.90;999.90;;;17.10;99.90;;;;;;5080419;28;21025;-73
2022/09/08 05:41:04;;;;;;;1999.90;999.90;;;17.10;99.90;;;;;;5078370;28;20487;-74
2022/09/08 05:43:31;;;;;;;1999.90;999.90;;;17.30;99.90;;;;;;5075735;28;20508;-74
2022/09/08 05:45:59;;;;;;;1999.90;999.90;;;17.40;99.90;;;;;;5067607;28;20482;-73
2022/09/08 05:48:26;;;;;;;1999.90;999.90;;;17.60;99.90;;;;;;5072480;28;20480;-74
2022/09/08 05:50:52;;;;;;;1999.90;999.90;;;18.20;99.90;;;;;;5074993;28;20511;-74
2022/09/08 05:53:19;;;;;;;1999.90;999.90;;;18.50;99.90;;;;;;5079590;28;20539;-74
2022/09/08 05:55:55;;;;;;;1999.90;999.90;;;18.70;99.90;;;;;;5072674;28;20465;-74
2022/09/08 05:58:22;;;;;;;1999.90;999.90;;;18.90;99.90;;;;;;5067014;28;20481;-74
2022/09/08 06:00:54;;;;;;;1999.90;999.90;;;19.00;99.90;;;;;;5068037;28;20969;-73
2022/09/08 06:03:21;;;;;;;1999.90;999.90;;;19.10;99.90;;;;;;5066991;28;20523;-73
2022/09/08 06:05:48;;;;;;;1999.90;999.90;;;19.20;99.90;;;;;;5071019;28;20456;-74
2022/09/08 06:08:14;;;;;;;1999.90;999.90;;;19.30;99.90;;;;;;5073791;28;20501;-74
2022/09/08 06:10:41;;;;;;;1999.90;999.90;;;19.30;99.90;;;;;;5071059;28;20489;-73
2022/09/08 06:13:09;;;;;;;1999.90;999.90;;;19.40;99.90;;;;;;5078586;28;20963;-74
2022/09/08 06:15:35;;;;;;;1999.90;999.90;;;19.50;99.90;;;;;;5067992;28;20499;-74
2022/09/08 06:18:02;;;;;;;1999.90;999.90;;;19.50;99.90;;;;;;5073258;28;20841;-74
2022/09/08 06:20:30;;;;;;;1999.90;999.90;;;19.60;99.90;;;;;;5076004;28;20461;-74
2022/09/08 06:22:56;;;;;;;1999.90;999.90;;;19.60;99.90;;;;;;5076962;28;20483;-74
2022/09/08 06:25:23;;;;;;;1999.90;999.90;;;19.70;99.90;;;;;;5091127;28;20506;-74
2022/09/08 06:27:57;;;;;;;1999.90;999.90;;;19.70;99.90;;;;;;5084407;28;21034;-72
2022/09/08 06:30:25;;;;;;;1999.90;999.90;;;19.80;99.90;;;;;;5064078;28;20456;-74
2022/09/08 06:32:57;;;;;;;1999.90;999.90;;;19.80;99.90;;;;;;5072057;28;20464;-74
2022/09/08 06:35:29;;;;;;;1999.90;999.90;;;19.80;99.90;;;;;;5070263;28;20453;-72
2022/09/08 06:38:00;;;;;;;1999.90;999.90;;;19.80;99.90;;;;;;5064993;28;20462;-74
2022/09/08 06:40:33;;;;;;;1999.90;999.90;;;19.70;99.90;;;;;;5071095;28;20452;-75
2022/09/08 06:43:03;;;;;;;1999.90;999.90;;;19.80;99.90;;;;;;5068911;28;20503;-74
2022/09/08 06:45:35;;;;;;;1999.90;999.90;;;19.70;99.90;;;;;;5071708;28;20437;-74
2022/09/08 06:48:22;;;;;;;1999.90;999.90;;;19.60;99.90;;;;;;5072542;28;20503;-74
2022/09/08 06:51:03;;;;;;;1999.90;999.90;;;19.50;99.90;;;;;;5070580;28;20466;-74
2022/09/08 06:53:35;;;;;;;1999.90;999.90;;;19.30;99.90;;;;;;5075591;28;20541;-74
2022/09/08 06:56:10;;;;;;;1999.90;999.90;;;19.30;99.90;;;;;;5070259;28;20461;-74
2022/09/08 06:58:41;;;;;;;1999.90;999.90;;;19.20;99.90;;;;;;5071677;28;20445;-74
2022/09/08 07:01:19;;;;;;;1999.90;999.90;;;19.20;99.90;;;;;;5071524;28;20831;-75
2022/09/08 07:03:58;;;;;;;1999.90;999.90;;;19.30;99.90;;;;;;5070011;28;20485;-73
2022/09/08 07:06:28;;;;;;;1999.90;999.90;;;19.40;99.90;;;;;;5075445;28;20957;-74
2022/09/08 07:09:11;;;;;;;1999.90;999.90;;;19.40;99.90;;;;;;5064262;28;20502;-74
2022/09/08 07:11:54;;;;;;;1999.90;999.90;;;19.60;99.90;;;;;;5071023;28;20961;-73
2022/09/08 07:14:40;;;;;;;1999.90;999.90;;;19.50;99.90;;;;;;5073484;28;21272;-74
2022/09/08 07:17:18;;;;;;;1999.90;999.90;;;19.50;99.90;;;;;;5073844;28;20478;-74
2022/09/08 07:19:49;;;;;;;1999.90;999.90;;;19.50;99.90;;;;;;5074240;28;20463;-74
2022/09/08 07:22:26;;;;;;;1999.90;999.90;;;19.40;99.90;;;;;;5068299;28;20469;-74
2022/09/08 07:24:57;;;;;;;1999.90;999.90;;;19.30;99.90;;;;;;5091935;28;20456;-74
2022/09/08 07:27:26;;;;;;;1999.90;999.90;;;19.30;99.90;;;;;;5088577;28;20994;-74
2022/09/08 07:29:57;;;;;;;1999.90;999.90;;;19.20;99.90;;;;;;5074853;28;20506;-74
2022/09/08 07:32:30;;;;;;;1999.90;999.90;;;19.20;99.90;;;;;;5075041;28;20797;-74
2022/09/08 07:35:00;;;;;;;1999.90;999.90;;;19.00;99.90;;;;;;5073881;28;20488;-74
2022/09/08 07:37:36;;;;;;;1999.90;999.90;;;18.90;99.90;;;;;;5065023;28;20534;-74
2022/09/08 07:40:16;;;;;;;1999.90;999.90;;;18.90;99.90;;;;;;5070419;28;20957;-74
2022/09/08 07:42:42;;;;;;;1999.90;999.90;;;19.20;99.90;;;;;;5070648;28;20968;-74
2022/09/08 07:45:12;;;;;;;1999.90;999.90;;;19.30;99.90;;;;;;5065248;28;20449;-74
2022/09/08 07:47:51;;;;;;;1999.90;999.90;;;19.30;99.90;;;;;;5073475;28;20461;-72
2022/09/08 07:50:53;;;;;;;1999.90;999.90;;;19.30;99.90;;;;;;5073181;28;21057;-72
2022/09/08 07:53:28;;;;;;;1999.90;999.90;;;19.30;99.90;;;;;;5066185;28;20565;-72
2022/09/08 07:55:58;;;;;;;1999.90;999.90;;;19.30;99.90;;;;;;5075051;28;20445;-72
2022/09/08 07:58:33;;;;;;;1999.90;999.90;;;19.40;99.90;;;;;;5071995;28;20914;-72
2022/09/08 08:01:06;;;;;;;1999.90;999.90;;;19.50;99.90;;;;;;5070707;28;20484;-72
2022/09/08 08:03:46;;;;;;;1999.90;999.90;;;19.70;99.90;;;;;;5055922;28;20531;-73
2022/09/08 08:06:17;;;;;;;1999.90;999.90;;;19.80;99.90;;;;;;5070049;28;20600;-73
2022/09/08 08:08:52;;;;;;;1999.90;999.90;;;20.00;99.90;;;;;;5070500;28;20516;-73
2022/09/08 08:11:29;;;;;;;1999.90;999.90;;;20.20;99.90;;;;;;5076263;28;20453;-73
2022/09/08 08:14:07;;;;;;;1999.90;999.90;;;20.30;99.90;;;;;;5070756;28;20515;-72
2022/09/08 08:16:44;;;;;;;1999.90;999.90;;;20.40;99.90;;;;;;5059956;28;20470;-73
2022/09/08 08:19:26;;;;;;;1999.90;999.90;;;20.40;99.90;;;;;;5064562;28;21020;-73
2022/09/08 08:21:59;;;;;;;1999.90;999.90;;;20.30;99.90;;;;;;5071956;28;20466;-73
2022/09/08 08:24:38;;;;;;;1999.90;999.90;;;20.30;99.90;;;;;;5078710;28;20479;-73
2022/09/08 08:27:16;;;;;;;1999.90;999.90;;;20.30;99.90;;;;;;5071349;28;20453;-73
2022/09/08 08:29:58;;;;;;;1999.90;999.90;;;20.20;99.90;;;;;;5064698;28;20520;-73
2022/09/08 08:32:30;;;;;;;1999.90;999.90;;;20.30;99.90;;;;;;5071561;28;20433;-73
2022/09/08 08:35:03;;;;;;;1999.90;999.90;;;20.30;99.90;;;;;;5076785;28;20482;-73
2022/09/08 08:37:33;;;;;;;1999.90;999.90;;;20.40;99.90;;;;;;5085299;28;20506;-73
2022/09/08 08:40:01;;;;;;;1999.90;999.90;;;20.30;99.90;;;;;;5096021;28;20494;-73
2022/09/08 08:42:41;;;;;;;1999.90;999.90;;;20.30;99.90;;;;;;5093994;28;20502;-73
2022/09/08 08:45:30;;;;;;;1999.90;999.90;;;20.30;99.90;;;;;;5072534;28;20945;-74
2022/09/08 08:48:22;;;;;;;1999.90;999.90;;;20.20;99.90;;;;;;5084484;28;20483;-73
2022/09/08 08:51:21;;;;;;;1999.90;999.90;;;20.40;99.90;;;;;;5076260;28;21061;-73
2022/09/08 08:54:14;;;;;;;1999.90;999.90;;;20.20;99.90;;;;;;5072946;28;20996;-73
2022/09/08 08:56:46;;;;;;;1999.90;999.90;;;20.40;99.90;;;;;;5071217;28;20449;-72
2022/09/08 08:59:27;;;;;;;1999.90;999.90;;;20.40;99.90;;;;;;5073127;28;20433;-73
2022/09/08 09:02:13;;;;;;;1999.90;999.90;;;20.50;99.90;;;;;;5073334;28;20451;-73
2022/09/08 09:04:59;;;;;;;1999.90;999.90;;;20.60;99.90;;;;;;5077696;28;20839;-73
2022/09/08 09:07:45;;;;;;;1999.90;999.90;;;20.50;99.90;;;;;;5070212;28;20449;-73
2022/09/08 09:10:37;;;;;;;1999.90;999.90;;;20.30;99.90;;;;;;5076931;28;20485;-73
2022/09/08 09:13:23;;;;;;;1999.90;999.90;;;20.20;99.90;;;;;;5061850;28;20489;-73
2022/09/08 09:16:05;;;;;;;1999.90;999.90;;;20.20;99.90;;;;;;5087547;28;21020;-74
2022/09/08 09:19:04;;;;;;;1999.90;999.90;;;20.10;99.90;;;;;;5092905;28;20429;-74
2022/09/08 09:21:50;;;;;;;1999.90;999.90;;;20.00;99.90;;;;;;5093216;28;20452;-73
2022/09/08 09:24:37;;;;;;;1999.90;999.90;;;20.00;99.90;;;;;;5077163;28;20493;-73
2022/09/08 09:27:26;;;;;;;1999.90;999.90;;;20.00;99.90;;;;;;5073122;28;20438;-74
2022/09/08 09:30:05;;;;;;;1999.90;999.90;;;20.00;99.90;;;;;;5072324;28;20481;-74
2022/09/08 09:32:50;;;;;;;1999.90;999.90;;;20.00;99.90;;;;;;5072773;28;20441;-73
2022/09/08 09:35:44;;;;;;;1999.90;999.90;;;20.00;99.90;;;;;;5072490;28;20487;-74
2022/09/08 09:38:41;;;;;;;1999.90;999.90;;;20.10;99.90;;;;;;5071199;28;20458;-74
2022/09/08 09:41:28;;;;;;;1999.90;999.90;;;20.00;99.90;;;;;;5072291;28;20535;-74
2022/09/08 09:44:08;;;;;;;1999.90;999.90;;;19.80;99.90;;;;;;5074930;28;20510;-75
2022/09/08 09:46:56;;;;;;;1999.90;999.90;;;19.60;99.90;;;;;;5062054;28;20465;-75
2022/09/08 09:49:58;;;;;;;1999.90;999.90;;;19.60;99.90;;;;;;5083953;28;20521;-74
2022/09/08 09:52:29;;;;;;;1999.90;999.90;;;19.60;99.90;;;;;;5043343;28;20480;-74
2022/09/08 09:55:09;;;;;;;1999.90;999.90;;;19.50;99.90;;;;;;5072016;28;20469;-74
2022/09/08 09:58:07;;;;;;;1999.90;999.90;;;19.50;99.90;;;;;;5072469;28;20448;-74
2022/09/08 10:00:47;;;;;;;1999.90;999.90;;;19.40;99.90;;;;;;5072700;28;20446;-75
2022/09/08 10:03:44;;;;;;;1999.90;999.90;;;19.30;99.90;;;;;;5071292;28;20518;-74
2022/09/08 10:06:25;;;;;;;1999.90;999.90;;;19.50;99.90;;;;;;5068402;28;20985;-74
2022/09/08 10:09:25;;;;;;;1999.90;999.90;;;19.50;99.90;;;;;;5072319;28;20445;-74
2022/09/08 10:12:17;;;;;;;1999.90;999.90;;;19.50;99.90;;;;;;5072205;28;20963;-74
2022/09/08 10:15:23;;;;;;;1999.90;999.90;;;19.40;99.90;;;;;;5071705;28;20473;-73
2022/09/08 10:18:17;;;;;;;1999.90;999.90;;;19.50;99.90;;;;;;5069246;28;20821;-73
2022/09/08 10:20:59;;;;;;;1999.90;999.90;;;19.60;99.90;;;;;;5069847;28;20453;-73
2022/09/08 10:24:04;;;;;;;1999.90;999.90;;;19.50;99.90;;;;;;5060291;28;20558;-73
2022/09/08 10:27:04;;;;;;;1999.90;999.90;;;19.50;99.90;;;;;;5052668;28;20462;-73
2022/09/08 10:29:56;;;;;;;1999.90;999.90;;;19.30;99.90;;;;;;5077048;28;20492;-73
2022/09/08 10:32:53;;;;;;;1999.90;999.90;;;19.10;99.90;;;;;;5079528;28;20571;-73
2022/09/08 10:35:37;;;;;;;1999.90;999.90;;;19.00;99.90;;;;;;5079564;28;20475;-73
2022/09/08 10:38:40;;;;;;;1999.90;999.90;;;19.10;99.90;;;;;;5077952;28;20530;-74
2022/09/08 10:41:17;;;;;;;1999.90;999.90;;;19.10;99.90;;;;;;5067275;28;20499;-73
2022/09/08 10:44:07;;;;;;;1999.90;999.90;;;19.20;99.90;;;;;;5072259;28;20947;-73
2022/09/08 10:47:14;;;;;;;1999.90;999.90;;;19.10;99.90;;;;;;5067248;28;20481;-73
2022/09/08 10:50:10;;;;;;;1999.90;999.90;;;19.00;99.90;;;;;;5071699;28;20477;-74
2022/09/08 10:53:07;;;;;;;1999.90;999.90;;;18.90;99.90;;;;;;5073458;28;20457;-73
2022/09/08 10:55:45;;;;;;;1999.90;999.90;;;18.90;99.90;;;;;;5074204;28;20508;-73
2022/09/08 10:58:38;;;;;;;1999.90;999.90;;;18.80;99.90;;;;;;5075245;28;20461;-73
2022/09/08 11:01:27;;;;;;;1999.90;999.90;;;18.80;99.90;;;;;;5067338;28;20503;-73
2022/09/08 11:04:21;;;;;;;1999.90;999.90;;;18.80;99.90;;;;;;5068870;28;20488;-74
2022/09/08 11:07:07;;;;;;;1999.90;999.90;;;18.80;99.90;;;;;;5074958;28;20798;-73
2022/09/08 11:09:48;;;;;;;1999.90;999.90;;;18.70;99.90;;;;;;5075076;28;20508;-74
2022/09/08 11:12:42;;;;;;;1999.90;999.90;;;18.80;99.90;;;;;;5074282;28;20468;-73
2022/09/08 11:15:35;;;;;;;1999.90;999.90;;;18.80;99.90;;;;;;5091307;22;20528;-71
2022/09/08 11:18:21;;;;;;;1999.90;999.90;;;18.70;99.90;;;;;;5071282;28;20478;-71
2022/09/08 11:20:51;;;;;;;1999.90;999.90;;;18.70;99.90;;;;;;5073382;28;20519;-72
2022/09/08 11:23:31;;;;;;;1999.90;999.90;;;18.70;99.90;;;;;;5071112;28;20903;-72
2022/09/08 11:26:17;;;;;;;1999.90;999.90;;;18.70;99.90;;;;;;5064675;28;20477;-72
2022/09/08 11:28:54;;;;;;;1999.90;999.90;;;18.70;99.90;;;;;;5062814;28;20461;-71
2022/09/08 11:31:33;;;;;;;1999.90;999.90;;;18.60;99.90;;;;;;5068764;28;21464;-71
2022/09/08 11:34:17;;;;;;;1999.90;999.90;;;18.60;99.90;;;;;;5069453;28;20538;-71
2022/09/08 11:37:06;;;;;;;1999.90;999.90;;;18.60;99.90;;;;;;5071304;28;20534;-71
2022/09/08 11:39:50;;;;;;;1999.90;999.90;;;18.50;99.90;;;;;;5065231;28;21026;-73
2022/09/08 11:42:45;;;;;;;1999.90;999.90;;;18.40;99.90;;;;;;5063976;28;20535;-71
2022/09/08 11:45:25;;;;;;;1999.90;999.90;;;18.20;99.90;;;;;;5064639;28;21032;-73
2022/09/08 11:48:34;;;;;;;1999.90;999.90;;;18.10;99.90;;;;;;5069399;28;20457;-72
2022/09/08 11:51:13;;;;;;;1999.90;999.90;;;18.10;99.90;;;;;;5044618;28;20524;-72
2022/09/08 11:53:57;;;;;;;1999.90;999.90;;;18.10;99.90;;;;;;5073908;28;20494;-73
2022/09/08 11:57:03;;;;;;;1999.90;999.90;;;18.00;99.90;;;;;;5073833;28;20444;-72
2022/09/08 11:59:46;;;;;;;1999.90;999.90;;;18.00;99.90;;;;;;5004690;28;20465;-73
2022/09/08 12:02:39;;;;;;;1999.90;999.90;;;18.00;99.90;;;;;;5072069;28;20457;-72
2022/09/08 12:05:21;;;;;;;1999.90;999.90;;;18.00;99.90;;;;;;5067451;28;20489;-71
2022/09/08 12:08:18;;;;;;;1999.90;999.90;;;18.00;99.90;;;;;;5074277;28;20854;-72
2022/09/08 12:11:01;;;;;;;1999.90;999.90;;;18.00;99.90;;;;;;5072581;28;20487;-73
2022/09/08 12:13:33;;;;;;;1999.90;999.90;;;18.10;99.90;;;;;;5073951;28;20849;-72
2022/09/08 12:16:16;;;;;;;1999.90;999.90;;;18.10;99.90;;;;;;5073426;28;20476;-72
2022/09/08 12:19:11;;;;;;;1999.90;999.90;;;18.20;99.90;;;;;;5073770;28;20442;-72
2022/09/08 12:21:58;;;;;;;1999.90;999.90;;;18.30;99.90;;;;;;5053934;28;20457;-73
2022/09/08 12:24:40;;;;;;;1999.90;999.90;;;18.30;99.90;;;;;;5053455;28;20986;-71
2022/09/08 12:27:22;;;;;;;1999.90;999.90;;;18.30;99.90;;;;;;5053490;28;20829;-73
2022/09/08 12:30:04;;;;;;;1999.90;999.90;;;18.20;99.90;;;;;;5064499;28;20953;-73
2022/09/08 12:33:01;;;;;;;1999.90;999.90;;;18.30;99.90;;;;;;5066552;28;20524;-72
2022/09/08 12:35:33;;;;;;;1999.90;999.90;;;18.30;99.90;;;;;;5065493;28;20473;-72
2022/09/08 12:38:21;;;;;;;1999.90;999.90;;;18.30;99.90;;;;;;5069377;28;20569;-70
2022/09/08 12:41:02;;;;;;;1999.90;999.90;;;18.20;99.90;;;;;;5065365;28;20483;-72
2022/09/08 12:43:39;;;;;;;1999.90;999.90;;;18.20;99.90;;;;;;5063316;28;20549;-72